createdAt,value
2018-12-31T00:00:02.701Z,20.00
2018-12-31T00:02:32.131Z,19.30
2018-12-31T00:05:00.599Z,20.12
2018-12-31T00:07:29.336Z,21.70
2018-12-31T00:09:57.738Z,20.80
2018-12-31T00:12:26.163Z,19.35
2018-12-31T00:14:54.566Z,23.52
2018-12-31T00:17:22.987Z,20.20
2018-12-31T00:19:51.391Z,17.02
2018-12-31T00:22:20.119Z,18.05
2018-12-31T00:24:48.530Z,17.42
2018-12-31T00:27:16.954Z,15.55
2018-12-31T00:29:45.356Z,20.35
2018-12-31T00:32:13.752Z,18.30
2018-12-31T00:34:42.176Z,19.05
2018-12-31T00:37:10.583Z,17.73
2018-12-31T00:39:39.275Z,17.60
2018-12-31T00:42:07.975Z,20.02
2018-12-31T00:44:36.658Z,18.15
2018-12-31T00:47:05.063Z,18.77
2018-12-31T00:49:33.482Z,18.07
2018-12-31T00:52:01.873Z,18.77
2018-12-31T00:54:30.581Z,16.67
2018-12-31T00:56:58.977Z,16.55
2018-12-31T00:59:27.385Z,16.27
2018-12-31T01:01:56.135Z,17.98
2018-12-31T01:04:24.554Z,16.95
2018-12-31T01:06:53.030Z,17.25
2018-12-31T01:09:21.440Z,17.52
2018-12-31T01:11:50.153Z,17.42
2018-12-31T01:14:18.847Z,18.07
2018-12-31T01:16:47.538Z,19.80
2018-12-31T01:19:15.955Z,17.65
2018-12-31T01:21:44.603Z,18.32
2018-12-31T01:24:13.005Z,18.73
2018-12-31T01:26:41.666Z,16.60
2018-12-31T01:29:10.078Z,17.07
2018-12-31T01:31:38.481Z,16.20
2018-12-31T01:34:06.895Z,15.58
2018-12-31T01:36:35.303Z,14.05
2018-12-31T01:39:05.506Z,15.25
2018-12-31T01:41:34.204Z,14.03
2018-12-31T01:44:02.881Z,13.93
2018-12-31T01:46:31.290Z,15.10
2018-12-31T01:48:59.706Z,15.45
2018-12-31T01:51:28.110Z,15.18
2018-12-31T01:53:56.823Z,14.53
2018-12-31T01:56:25.230Z,14.70
2018-12-31T01:58:53.617Z,14.28
2018-12-31T02:01:22.027Z,13.80
2018-12-31T02:03:50.740Z,14.85
2018-12-31T02:06:19.146Z,13.28
2018-12-31T02:08:47.799Z,15.78
2018-12-31T02:11:16.503Z,15.03
2018-12-31T02:13:44.885Z,14.15
2018-12-31T02:16:13.306Z,17.37
2018-12-31T02:18:42.031Z,16.75
2018-12-31T02:21:10.451Z,17.32
2018-12-31T02:23:38.858Z,18.32
2018-12-31T02:26:07.257Z,17.42
2018-12-31T02:28:35.668Z,18.62
2018-12-31T02:31:04.083Z,18.27
2018-12-31T02:33:32.825Z,20.37
2018-12-31T02:36:01.510Z,24.67
2018-12-31T02:38:29.913Z,26.80
2018-12-31T02:40:58.383Z,41.20
2018-12-31T02:43:26.789Z,35.13
2018-12-31T02:45:55.387Z,46.70
2018-12-31T02:48:23.782Z,54.85
2018-12-31T02:50:52.611Z,46.33
2018-12-31T02:53:21.011Z,43.15
2018-12-31T02:55:49.665Z,61.13
2018-12-31T02:58:18.074Z,54.67
2018-12-31T03:00:46.488Z,64.22
2018-12-31T03:03:14.894Z,51.85
2018-12-31T03:05:43.595Z,30.50
2018-12-31T03:08:12.012Z,45.30
2018-12-31T03:10:40.419Z,34.27
2018-12-31T03:13:09.065Z,51.90
2018-12-31T03:15:37.475Z,40.40
2018-12-31T03:18:06.208Z,46.65
2018-12-31T03:20:34.894Z,39.38
2018-12-31T03:23:03.579Z,25.65
2018-12-31T03:25:31.985Z,28.50
2018-12-31T03:28:00.405Z,36.58
2018-12-31T03:30:29.057Z,25.08
2018-12-31T03:32:57.484Z,32.40
2018-12-31T03:35:25.899Z,35.88
2018-12-31T03:37:54.315Z,50.58
2018-12-31T03:40:22.723Z,49.38
2018-12-31T03:42:51.427Z,53.00
2018-12-31T03:45:20.120Z,51.87
2018-12-31T03:47:48.556Z,46.15
2018-12-31T03:50:17.287Z,44.95
2018-12-31T03:52:45.975Z,65.60
2018-12-31T03:55:14.380Z,43.40
2018-12-31T03:57:42.781Z,66.65
2018-12-31T04:00:11.195Z,70.28
2018-12-31T04:02:39.607Z,40.27
2018-12-31T04:05:08.050Z,63.58
2018-12-31T04:07:36.524Z,29.80
2018-12-31T04:10:05.381Z,44.05
2018-12-31T04:12:34.032Z,38.73
2018-12-31T04:15:02.723Z,40.33
2018-12-31T04:17:31.142Z,54.73
2018-12-31T04:19:59.558Z,44.03
2018-12-31T04:22:28.372Z,31.93
2018-12-31T04:24:57.059Z,49.65
2018-12-31T04:27:25.478Z,52.10
2018-12-31T04:29:53.897Z,32.33
2018-12-31T04:32:22.301Z,30.30
2018-12-31T04:34:50.705Z,42.40
2018-12-31T04:37:19.128Z,31.20
2018-12-31T04:39:47.538Z,44.40
2018-12-31T04:42:15.946Z,52.85
2018-12-31T04:44:44.364Z,46.20
2018-12-31T04:47:13.091Z,53.60
2018-12-31T04:49:41.767Z,41.50
2018-12-31T04:52:10.178Z,68.78
2018-12-31T04:54:38.585Z,62.85
2018-12-31T04:57:06.990Z,69.65
2018-12-31T04:59:35.698Z,69.87
2018-12-31T05:02:04.395Z,76.65
2018-12-31T05:04:32.805Z,77.03
2018-12-31T05:07:01.222Z,62.08
2018-12-31T05:09:29.711Z,82.92
2018-12-31T05:11:58.411Z,76.92
2018-12-31T05:14:26.827Z,70.85
2018-12-31T05:16:55.474Z,60.95
2018-12-31T05:19:24.157Z,80.05
2018-12-31T05:21:52.575Z,60.48
2018-12-31T05:24:20.995Z,78.95
2018-12-31T05:26:49.716Z,71.28
2018-12-31T05:29:18.401Z,55.60
2018-12-31T05:31:47.091Z,84.90
2018-12-31T05:34:15.767Z,77.67
2018-12-31T05:36:44.176Z,66.53
2018-12-31T05:39:12.599Z,73.22
2018-12-31T05:41:41.015Z,63.60
2018-12-31T05:44:09.435Z,57.60
2018-12-31T05:46:37.847Z,74.67
2018-12-31T05:49:06.263Z,49.27
2018-12-31T05:51:34.666Z,48.30
2018-12-31T05:54:03.414Z,71.20
2018-12-31T05:56:32.103Z,72.90
2018-12-31T05:59:00.518Z,70.67
2018-12-31T06:01:28.921Z,50.98
2018-12-31T06:03:57.331Z,55.70
2018-12-31T06:06:25.734Z,84.80
2018-12-31T06:08:54.159Z,58.68
2018-12-31T06:11:22.566Z,69.05
2018-12-31T06:13:51.271Z,77.42
2018-12-31T06:16:19.964Z,64.72
2018-12-31T06:18:48.390Z,55.67
2018-12-31T06:21:17.127Z,57.93
2018-12-31T06:23:45.811Z,70.50
2018-12-31T06:26:14.230Z,51.90
2018-12-31T06:28:42.644Z,72.80
2018-12-31T06:31:11.063Z,81.67
2018-12-31T06:33:39.475Z,80.22
2018-12-31T06:36:07.877Z,57.58
2018-12-31T06:38:36.287Z,69.82
2018-12-31T06:41:04.708Z,72.92
2018-12-31T06:43:33.363Z,73.70
2018-12-31T06:46:02.047Z,89.40
2018-12-31T06:48:30.756Z,80.85
2018-12-31T06:50:59.174Z,101.38
2018-12-31T06:53:27.582Z,77.62
2018-12-31T06:55:56.278Z,91.53
2018-12-31T06:58:25.548Z,65.85
2018-12-31T07:00:54.080Z,79.35
2018-12-31T07:03:22.747Z,75.70
2018-12-31T07:05:51.169Z,71.60
2018-12-31T07:08:19.919Z,52.53
2018-12-31T07:10:48.603Z,56.90
2018-12-31T07:13:17.022Z,57.65
2018-12-31T07:15:45.767Z,45.78
2018-12-31T07:18:14.773Z,48.20
2018-12-31T07:20:43.187Z,46.15
2018-12-31T07:23:11.935Z,48.30
2018-12-31T07:25:40.346Z,46.77
2018-12-31T07:28:08.755Z,46.60
2018-12-31T07:30:37.170Z,42.15
2018-12-31T07:33:05.865Z,43.80
2018-12-31T07:35:34.290Z,44.77
2018-12-31T07:38:02.682Z,44.23
2018-12-31T07:40:31.099Z,45.50
2018-12-31T07:42:59.506Z,47.80
2018-12-31T07:45:27.923Z,45.43
2018-12-31T07:47:56.334Z,44.88
2018-12-31T07:50:24.746Z,46.45
2018-12-31T07:52:53.402Z,47.38
2018-12-31T07:55:21.812Z,45.25
2018-12-31T07:57:50.231Z,45.03
2018-12-31T08:00:18.642Z,47.30
2018-12-31T08:02:47.063Z,45.55
2018-12-31T08:05:15.917Z,45.70
2018-12-31T08:07:44.594Z,45.88
2018-12-31T08:10:13.007Z,48.33
2018-12-31T08:12:41.424Z,45.10
2018-12-31T08:15:09.826Z,49.13
2018-12-31T08:17:38.523Z,46.98
2018-12-31T08:20:06.931Z,41.93
2018-12-31T08:22:35.345Z,45.88
2018-12-31T08:25:04.117Z,42.65
2018-12-31T08:27:32.534Z,42.85
2018-12-31T08:30:01.238Z,41.95
2018-12-31T08:32:29.654Z,42.40
2018-12-31T08:34:58.062Z,42.38
2018-12-31T08:37:26.482Z,43.50
2018-12-31T08:39:54.897Z,43.10
2018-12-31T08:42:24.187Z,36.23
2018-12-31T08:44:52.856Z,38.15
2018-12-31T08:47:21.543Z,38.45
2018-12-31T08:49:50.223Z,41.77
2018-12-31T08:52:18.643Z,41.30
2018-12-31T08:54:47.403Z,41.63
2018-12-31T08:57:16.070Z,44.15
2018-12-31T08:59:44.764Z,41.30
2018-12-31T09:02:13.182Z,47.37
2018-12-31T09:04:41.831Z,44.27
2018-12-31T09:07:10.515Z,42.90
2018-12-31T09:09:38.922Z,26.20
2018-12-31T09:12:07.608Z,38.25
2018-12-31T09:14:36.272Z,40.23
2018-12-31T09:17:04.708Z,41.00
2018-12-31T09:19:33.466Z,40.70
2018-12-31T09:22:01.874Z,43.20
2018-12-31T09:24:30.294Z,44.77
2018-12-31T09:26:58.705Z,47.00
2018-12-31T09:29:27.464Z,50.10
2018-12-31T09:31:55.871Z,47.78
2018-12-31T09:34:24.282Z,46.90
2018-12-31T09:36:53.018Z,48.50
2018-12-31T09:39:21.702Z,48.20
2018-12-31T09:41:50.383Z,51.23
2018-12-31T09:44:18.812Z,46.08
2018-12-31T09:46:47.219Z,49.08
2018-12-31T09:49:15.943Z,47.60
2018-12-31T09:51:44.354Z,46.57
2018-12-31T09:54:13.116Z,42.75
2018-12-31T09:56:41.527Z,44.90
2018-12-31T09:59:09.937Z,42.97
2018-12-31T10:01:38.420Z,44.55
2018-12-31T10:04:07.127Z,43.25
2018-12-31T10:06:35.526Z,41.73
2018-12-31T10:09:05.827Z,39.45
2018-12-31T10:11:34.299Z,42.48
2018-12-31T10:14:03.002Z,42.62
2018-12-31T10:16:31.411Z,38.90
2018-12-31T10:18:59.834Z,36.93
2018-12-31T10:21:28.225Z,42.87
2018-12-31T10:23:56.928Z,38.80
2018-12-31T10:26:25.325Z,41.30
2018-12-31T10:28:53.998Z,42.83
2018-12-31T10:31:22.393Z,47.80
2018-12-31T10:33:51.060Z,47.80
2018-12-31T10:36:19.463Z,46.57
2018-12-31T10:38:51.171Z,48.80
2018-12-31T10:41:18.253Z,53.70
2018-12-31T10:43:46.895Z,57.90
2018-12-31T10:46:15.302Z,51.23
2018-12-31T10:48:43.713Z,52.93
2018-12-31T10:51:12.376Z,46.90
2018-12-31T10:53:40.879Z,50.33
2018-12-31T10:56:09.287Z,54.80
2018-12-31T10:58:38.023Z,50.67
2018-12-31T11:01:06.712Z,62.65
2018-12-31T11:03:35.389Z,51.15
2018-12-31T11:06:03.814Z,56.60
2018-12-31T11:08:32.216Z,44.93
2018-12-31T11:11:00.629Z,46.68
2018-12-31T11:13:29.021Z,50.53
2018-12-31T11:15:57.704Z,50.47
2018-12-31T11:18:26.381Z,53.03
2018-12-31T11:20:55.083Z,52.80
2018-12-31T11:23:23.491Z,49.95
2018-12-31T11:25:51.902Z,53.20
2018-12-31T11:28:20.312Z,37.90
2018-12-31T11:30:49.015Z,52.07
2018-12-31T11:33:17.432Z,57.27
2018-12-31T11:35:46.177Z,59.15
2018-12-31T11:38:14.862Z,65.97
2018-12-31T11:40:43.642Z,70.00
2018-12-31T11:43:12.071Z,76.87
2018-12-31T11:45:40.823Z,65.53
2018-12-31T11:48:09.217Z,70.70
2018-12-31T11:50:37.871Z,64.42
2018-12-31T11:53:06.266Z,65.67
2018-12-31T11:55:34.687Z,60.08
2018-12-31T11:58:03.421Z,60.48
2018-12-31T12:00:32.120Z,60.60
2018-12-31T12:03:00.752Z,62.77
2018-12-31T12:05:29.171Z,59.60
2018-12-31T12:07:57.866Z,56.98
2018-12-31T12:10:26.610Z,57.75
2018-12-31T12:12:55.034Z,56.18
2018-12-31T12:15:23.742Z,51.23
2018-12-31T12:17:52.205Z,55.63
2018-12-31T12:20:20.648Z,53.95
2018-12-31T12:22:49.071Z,55.85
2018-12-31T12:25:17.752Z,57.27
2018-12-31T12:27:46.165Z,54.70
2018-12-31T12:30:14.564Z,53.97
2018-12-31T12:32:43.459Z,50.70
2018-12-31T12:35:11.862Z,45.80
2018-12-31T12:37:48.167Z,44.03
2018-12-31T12:40:11.016Z,46.77
2018-12-31T12:42:39.683Z,48.87
2018-12-31T12:45:08.138Z,45.57
2018-12-31T12:47:36.586Z,48.50
2018-12-31T12:50:05.959Z,45.87
2018-12-31T12:52:34.355Z,49.97
2018-12-31T12:55:02.758Z,76.33
2018-12-31T12:57:31.451Z,51.80
2018-12-31T13:00:00.212Z,50.50
2018-12-31T13:02:28.674Z,51.70
2018-12-31T13:05:03.639Z,44.35
2018-12-31T13:07:27.236Z,54.03
2018-12-31T13:09:56.149Z,48.65
2018-12-31T13:12:24.570Z,49.38
2018-12-31T13:14:52.987Z,48.10
2018-12-31T13:17:21.470Z,25.40
2018-12-31T13:19:49.883Z,35.17
2018-12-31T13:22:18.670Z,38.83
2018-12-31T13:24:47.068Z,41.00
2018-12-31T13:27:15.503Z,42.80
2018-12-31T13:29:44.210Z,41.33
2018-12-31T13:32:12.631Z,41.53
2018-12-31T13:34:41.513Z,40.97
2018-12-31T13:37:09.918Z,38.63
2018-12-31T13:39:38.651Z,32.43
2018-12-31T13:42:07.330Z,26.33
2018-12-31T13:44:35.738Z,30.03
2018-12-31T13:47:04.143Z,33.00
2018-12-31T13:49:32.591Z,32.03
2018-12-31T13:52:01.370Z,36.97
2018-12-31T13:54:30.051Z,36.67
2018-12-31T13:56:58.445Z,35.60
2018-12-31T13:59:26.853Z,37.00
2018-12-31T14:01:55.527Z,37.53
2018-12-31T14:04:23.947Z,36.57
2018-12-31T14:06:52.364Z,37.35
2018-12-31T14:09:20.775Z,37.07
2018-12-31T14:11:49.183Z,36.17
2018-12-31T14:14:17.598Z,42.23
2018-12-31T14:16:45.996Z,35.23
2018-12-31T14:19:14.424Z,35.23
2018-12-31T14:21:42.822Z,37.93
2018-12-31T14:24:11.535Z,38.60
2018-12-31T14:26:39.926Z,36.80
2018-12-31T14:29:08.338Z,37.80
2018-12-31T14:31:36.751Z,38.87
2018-12-31T14:34:05.157Z,36.90
2018-12-31T14:36:33.830Z,39.27
2018-12-31T14:39:02.619Z,39.13
2018-12-31T14:41:31.021Z,38.83
2018-12-31T14:43:59.683Z,37.87
2018-12-31T14:46:28.100Z,40.93
2018-12-31T14:48:56.503Z,43.13
2018-12-31T14:51:25.263Z,45.35
2018-12-31T14:53:53.679Z,43.73
2018-12-31T14:56:22.399Z,43.67
2018-12-31T14:58:51.087Z,41.87
2018-12-31T15:01:19.776Z,44.03
2018-12-31T15:03:48.570Z,43.30
2018-12-31T15:06:17.252Z,41.80
2018-12-31T15:08:45.649Z,37.70
2018-12-31T15:11:14.058Z,36.70
2018-12-31T15:13:42.470Z,48.50
2018-12-31T15:16:11.151Z,48.97
2018-12-31T15:18:40.476Z,57.07
2018-12-31T15:21:09.165Z,57.77
2018-12-31T15:23:37.867Z,51.97
2018-12-31T15:26:06.282Z,47.10
2018-12-31T15:28:34.673Z,47.10
2018-12-31T15:31:03.089Z,43.63
2018-12-31T15:33:31.778Z,47.60
2018-12-31T15:36:00.485Z,40.50
2018-12-31T15:38:28.875Z,41.67
2018-12-31T15:40:57.636Z,39.97
2018-12-31T15:43:26.334Z,38.50
2018-12-31T15:45:54.741Z,39.00
2018-12-31T15:48:23.129Z,37.10
2018-12-31T15:50:51.862Z,38.50
2018-12-31T15:53:20.290Z,37.90
2018-12-31T15:55:48.940Z,39.10
2018-12-31T15:58:17.338Z,37.90
2018-12-31T16:00:45.741Z,38.60
2018-12-31T16:03:14.145Z,44.90
2018-12-31T16:05:42.558Z,46.40
2018-12-31T16:08:11.329Z,44.17
2018-12-31T16:10:39.734Z,44.90
2018-12-31T16:13:08.407Z,59.58
2018-12-31T16:15:36.817Z,67.10
2018-12-31T16:18:05.866Z,46.92
2018-12-31T16:20:34.422Z,46.65
2018-12-31T16:23:02.836Z,55.23
2018-12-31T16:25:31.242Z,55.80
2018-12-31T16:27:59.655Z,41.30
2018-12-31T16:30:28.068Z,42.70
2018-12-31T16:32:56.478Z,43.35
2018-12-31T16:35:24.910Z,40.28
2018-12-31T16:37:53.310Z,39.53
2018-12-31T16:40:21.714Z,37.27
2018-12-31T16:42:50.122Z,37.53
2018-12-31T16:45:18.529Z,39.38
2018-12-31T16:47:47.378Z,39.80
2018-12-31T16:50:15.783Z,41.50
2018-12-31T16:52:44.199Z,41.33
2018-12-31T16:55:12.912Z,43.70
2018-12-31T16:57:41.317Z,44.50
2018-12-31T17:00:10.106Z,44.25
2018-12-31T17:02:38.533Z,47.13
2018-12-31T17:05:07.101Z,44.50
2018-12-31T17:07:35.535Z,45.20
2018-12-31T17:10:05.979Z,42.78
2018-12-31T17:12:34.394Z,48.00
2018-12-31T17:15:03.109Z,51.80
2018-12-31T17:17:31.513Z,54.97
2018-12-31T17:19:59.909Z,55.77
2018-12-31T17:22:28.659Z,50.80
2018-12-31T17:24:57.062Z,51.83
2018-12-31T17:27:25.479Z,51.93
2018-12-31T17:29:54.202Z,53.03
2018-12-31T17:32:22.615Z,48.27
2018-12-31T17:34:51.198Z,48.40
2018-12-31T17:37:19.618Z,48.73
2018-12-31T17:39:48.645Z,45.53
2018-12-31T17:42:17.327Z,47.53
2018-12-31T17:44:46.013Z,48.80
2018-12-31T17:47:14.429Z,47.40
2018-12-31T17:49:42.907Z,46.58
2018-12-31T17:52:11.675Z,52.88
2018-12-31T17:54:40.294Z,48.50
2018-12-31T17:57:09.036Z,49.58
2018-12-31T17:59:37.728Z,53.42
2018-12-31T18:02:06.209Z,51.83
2018-12-31T18:04:34.899Z,59.63
2018-12-31T18:07:03.574Z,45.03
2018-12-31T18:09:31.994Z,44.37
2018-12-31T18:12:00.737Z,50.57
2018-12-31T18:14:29.436Z,45.40
2018-12-31T18:16:58.119Z,44.73
2018-12-31T18:19:26.812Z,49.50
2018-12-31T18:21:55.206Z,50.60
2018-12-31T18:24:23.692Z,48.40
2018-12-31T18:26:52.167Z,50.43
2018-12-31T18:29:20.579Z,49.07
2018-12-31T18:31:49.351Z,18.27
2018-12-31T18:34:18.107Z,35.57
2018-12-31T18:36:46.519Z,39.37
2018-12-31T18:39:14.946Z,41.83
2018-12-31T18:41:43.345Z,42.90
2018-12-31T18:44:12.143Z,42.87
2018-12-31T18:46:40.631Z,47.60
2018-12-31T18:49:09.299Z,43.30
2018-12-31T18:51:37.996Z,45.70
2018-12-31T18:54:06.500Z,45.90
2018-12-31T18:56:34.911Z,48.37
2018-12-31T18:59:03.323Z,49.00
2018-12-31T19:01:32.023Z,49.53
2018-12-31T19:04:00.439Z,49.00
2018-12-31T19:06:28.910Z,55.67
2018-12-31T19:08:57.560Z,50.67
2018-12-31T19:11:26.247Z,51.60
2018-12-31T19:13:54.935Z,53.53
2018-12-31T19:16:23.633Z,52.00
2018-12-31T19:18:52.309Z,52.70
2018-12-31T19:21:20.995Z,55.27
2018-12-31T19:23:49.795Z,55.25
2018-12-31T19:26:18.503Z,52.88
2018-12-31T19:28:47.168Z,49.88
2018-12-31T19:31:15.562Z,54.77
2018-12-31T19:33:43.984Z,57.88
2018-12-31T19:36:12.454Z,57.67
2018-12-31T19:38:41.107Z,63.30
2018-12-31T19:41:09.508Z,64.87
2018-12-31T19:43:37.933Z,68.50
2018-12-31T19:46:06.343Z,57.75
2018-12-31T19:48:34.755Z,147.87
2018-12-31T19:51:03.602Z,56.73
2018-12-31T19:53:32.094Z,66.60
2018-12-31T19:56:00.510Z,63.38
2018-12-31T19:58:29.242Z,80.07
2018-12-31T20:00:57.930Z,72.47
2018-12-31T20:03:27.027Z,58.68
2018-12-31T20:05:55.489Z,79.17
2018-12-31T20:08:23.907Z,57.53
2018-12-31T20:10:52.576Z,52.73
2018-12-31T20:13:20.990Z,54.05
2018-12-31T20:15:49.743Z,55.07
2018-12-31T20:18:18.150Z,53.35
2018-12-31T20:20:46.566Z,55.30
2018-12-31T20:23:14.979Z,54.98
2018-12-31T20:25:43.400Z,58.95
2018-12-31T20:28:11.914Z,57.00
2018-12-31T20:30:40.626Z,56.68
2018-12-31T20:33:09.319Z,56.70
2018-12-31T20:35:38.002Z,58.78
2018-12-31T20:38:06.406Z,54.73
2018-12-31T20:40:34.829Z,51.70
2018-12-31T20:43:03.304Z,48.98
2018-12-31T20:45:32.202Z,47.88
2018-12-31T20:48:01.873Z,44.13
2018-12-31T20:50:43.843Z,46.80
2018-12-31T20:53:10.706Z,44.63
2018-12-31T20:55:39.375Z,50.03
2018-12-31T20:58:07.786Z,47.10
2018-12-31T21:00:36.212Z,44.45
2018-12-31T21:03:04.635Z,44.27
2018-12-31T21:05:33.025Z,60.03
2018-12-31T21:08:01.786Z,60.48
2018-12-31T21:10:30.882Z,51.20
2018-12-31T21:12:59.325Z,47.65
2018-12-31T21:15:27.747Z,51.35
2018-12-31T21:17:56.144Z,51.57
2018-12-31T21:20:24.579Z,59.75
2018-12-31T21:22:53.003Z,23.27
2018-12-31T21:25:21.400Z,18.50
2018-12-31T21:27:50.158Z,32.40
2018-12-31T21:30:18.566Z,35.27
2018-12-31T21:32:46.977Z,35.87
2018-12-31T21:35:15.388Z,33.67
2018-12-31T21:37:43.993Z,42.07
2018-12-31T21:40:12.655Z,41.47
2018-12-31T21:42:41.375Z,39.10
2018-12-31T21:45:09.770Z,37.00
2018-12-31T21:47:38.182Z,35.27
2018-12-31T21:50:07.090Z,36.53
2018-12-31T21:52:35.786Z,35.20
2018-12-31T21:55:05.023Z,35.10
2018-12-31T21:57:33.432Z,38.63
2018-12-31T22:00:01.842Z,39.57
2018-12-31T22:02:30.246Z,42.95
2018-12-31T22:04:59.011Z,43.73
2018-12-31T22:07:27.699Z,43.30
2018-12-31T22:09:56.497Z,48.20
2018-12-31T22:12:25.167Z,47.50
2018-12-31T22:14:53.859Z,47.62
2018-12-31T22:17:22.650Z,46.50
2018-12-31T22:19:51.059Z,47.75
2018-12-31T22:22:19.479Z,47.38
2018-12-31T22:24:48.186Z,43.65
2018-12-31T22:27:16.601Z,44.13
2018-12-31T22:29:45.016Z,45.40
2018-12-31T22:32:13.733Z,44.30
2018-12-31T22:34:42.192Z,44.20
2018-12-31T22:37:11.024Z,46.10
2018-12-31T22:39:39.803Z,43.42
2018-12-31T22:42:08.486Z,43.63
2018-12-31T22:44:36.898Z,46.20
2018-12-31T22:47:05.652Z,45.33
2018-12-31T22:49:34.298Z,46.08
2018-12-31T22:52:03.026Z,50.52
2018-12-31T22:54:31.709Z,52.85
2018-12-31T22:57:00.498Z,50.95
2018-12-31T22:59:28.995Z,53.00
2018-12-31T23:01:57.505Z,999.90
2018-12-31T23:04:25.927Z,152.68
2018-12-31T23:06:55.806Z,770.42
2018-12-31T23:09:24.575Z,598.83
2018-12-31T23:11:53.062Z,999.90
2018-12-31T23:14:21.560Z,999.90
2018-12-31T23:16:50.299Z,209.70
2018-12-31T23:19:18.718Z,248.68
2018-12-31T23:21:47.468Z,90.10
2018-12-31T23:24:16.170Z,77.10
2018-12-31T23:26:44.562Z,261.50
2018-12-31T23:29:12.974Z,83.23
2018-12-31T23:31:41.378Z,81.87
2018-12-31T23:34:09.799Z,93.80
2018-12-31T23:36:38.773Z,104.80
2018-12-31T23:39:07.363Z,130.47
2018-12-31T23:41:35.774Z,143.32
2018-12-31T23:44:04.195Z,142.87
2018-12-31T23:46:32.610Z,162.57
2018-12-31T23:49:01.507Z,172.65
2018-12-31T23:51:29.921Z,182.12
2018-12-31T23:53:58.331Z,199.77
2018-12-31T23:56:26.747Z,207.67
2018-12-31T23:58:55.166Z,211.85
